createdAt,value
2023-04-18T00:02:34.245Z,9.85
2023-04-18T00:06:00.267Z,9.35
2023-04-18T00:09:25.036Z,7.97
2023-04-18T00:12:49.976Z,7.15
2023-04-18T00:17:11.743Z,6.20
2023-04-18T00:20:39.876Z,5.47
2023-04-18T00:24:05.017Z,6.10
2023-04-18T00:27:29.198Z,5.90
2023-04-18T00:30:53.021Z,6.95
2023-04-18T00:34:17.375Z,5.18
2023-04-18T00:37:41.580Z,4.85
2023-04-18T00:41:07.083Z,4.70
2023-04-18T00:44:31.866Z,4.63
2023-04-18T00:47:56.544Z,4.72
2023-04-18T00:51:22.320Z,4.50
2023-04-18T00:54:47.114Z,4.13
2023-04-18T00:58:13.516Z,4.38
2023-04-18T01:01:37.706Z,4.18
2023-04-18T01:05:01.873Z,3.95
2023-04-18T01:08:25.818Z,5.60
2023-04-18T01:11:52.867Z,4.78
2023-04-18T01:15:18.999Z,4.30
2023-04-18T01:18:44.011Z,4.65
2023-04-18T01:22:22.591Z,5.15
2023-04-18T01:25:49.791Z,5.30
2023-04-18T01:29:14.095Z,4.75
2023-04-18T01:32:38.853Z,4.15
2023-04-18T01:36:03.696Z,4.18
2023-04-18T01:39:27.780Z,3.97
2023-04-18T01:42:55.760Z,4.25
2023-04-18T01:46:19.899Z,5.00
2023-04-18T01:49:48.750Z,4.50
2023-04-18T01:53:12.621Z,4.10
2023-04-18T01:56:36.316Z,4.03
2023-04-18T02:00:02.127Z,3.55
2023-04-18T02:03:26.952Z,4.32
2023-04-18T02:06:53.979Z,4.03
2023-04-18T02:10:17.893Z,4.03
2023-04-18T02:13:41.041Z,4.32
2023-04-18T02:17:07.169Z,4.85
2023-04-18T02:20:32.073Z,3.78
2023-04-18T02:23:56.276Z,4.00
2023-04-18T02:27:21.680Z,4.20
2023-04-18T02:30:46.189Z,4.07
2023-04-18T02:34:12.357Z,4.32
2023-04-18T02:37:37.214Z,4.70
2023-04-18T02:41:00.895Z,3.75
2023-04-18T02:44:24.068Z,4.50
2023-04-18T02:47:55.514Z,4.15
2023-04-18T02:51:23.088Z,4.05
2023-04-18T02:54:51.632Z,4.72
2023-04-18T02:58:15.866Z,4.50
2023-04-18T03:01:39.300Z,4.57
2023-04-18T03:05:05.523Z,4.05
2023-04-18T03:08:31.296Z,5.93
2023-04-18T03:11:58.054Z,4.35
2023-04-18T03:15:22.661Z,3.75
2023-04-18T03:18:50.915Z,4.80
2023-04-18T03:22:17.298Z,4.47
2023-04-18T03:25:43.649Z,4.40
2023-04-18T03:29:08.211Z,5.65
2023-04-18T03:32:34.885Z,5.70
2023-04-18T03:36:00.079Z,4.80
2023-04-18T03:39:25.338Z,4.88
2023-04-18T03:42:52.328Z,4.55
2023-04-18T03:46:17.148Z,5.72
2023-04-18T03:49:41.834Z,4.72
2023-04-18T03:53:06.953Z,5.15
2023-04-18T03:56:30.739Z,5.20
2023-04-18T04:00:00.149Z,5.70
2023-04-18T04:03:24.513Z,5.60
2023-04-18T04:06:52.101Z,9.52
2023-04-18T04:10:16.095Z,11.23
2023-04-18T04:13:42.170Z,10.65
2023-04-18T04:17:06.924Z,8.63
2023-04-18T04:20:30.094Z,8.75
2023-04-18T04:23:53.868Z,7.20
2023-04-18T04:27:19.487Z,12.25
2023-04-18T04:30:44.398Z,12.68
2023-04-18T04:34:11.271Z,13.85
2023-04-18T04:37:35.971Z,11.90
2023-04-18T04:41:01.060Z,11.57
2023-04-18T04:44:27.731Z,10.98
2023-04-18T04:47:51.949Z,9.23
2023-04-18T04:51:18.251Z,10.15
2023-04-18T04:54:43.438Z,8.68
2023-04-18T04:58:07.426Z,9.82
2023-04-18T05:01:31.947Z,10.25
2023-04-18T05:04:57.946Z,10.45
2023-04-18T05:08:29.416Z,12.90
2023-04-18T05:11:55.021Z,12.55
2023-04-18T05:15:22.698Z,24.63
2023-04-18T05:18:48.315Z,29.77
2023-04-18T05:22:18.202Z,14.55
2023-04-18T05:25:49.402Z,11.02
2023-04-18T05:32:41.399Z,11.48
2023-04-18T05:36:07.951Z,11.95
2023-04-18T05:39:40.262Z,19.63
2023-04-18T05:43:09.911Z,13.65
2023-04-18T05:46:36.502Z,14.57
2023-04-18T05:50:02.271Z,14.68
2023-04-18T05:53:29.350Z,14.88
2023-04-18T05:56:54.150Z,11.35
2023-04-18T06:00:23.655Z,9.57
2023-04-18T06:03:55.657Z,9.65
2023-04-18T06:07:22.147Z,9.07
2023-04-18T06:10:46.252Z,5.43
2023-04-18T06:14:16.566Z,6.13
2023-04-18T06:17:42.995Z,5.25
2023-04-18T06:21:06.097Z,6.30
2023-04-18T06:24:31.151Z,5.75
2023-04-18T06:27:59.688Z,5.18
2023-04-18T06:31:23.682Z,5.03
2023-04-18T06:34:48.781Z,4.18
2023-04-18T06:38:17.168Z,4.63
2023-04-18T06:41:40.659Z,6.57
2023-04-18T06:45:06.668Z,4.63
2023-04-18T06:48:29.846Z,5.45
2023-04-18T06:51:54.138Z,6.97
2023-04-18T06:55:17.715Z,4.75
2023-04-18T06:58:41.071Z,5.03
2023-04-18T07:02:04.195Z,3.70
2023-04-18T07:05:28.023Z,4.13
2023-04-18T07:08:54.793Z,3.88
2023-04-18T07:12:19.262Z,4.85
2023-04-18T07:15:42.994Z,4.18
2023-04-18T07:19:08.147Z,5.35
2023-04-18T07:22:38.532Z,4.13
2023-04-18T07:26:12.406Z,4.90
2023-04-18T07:29:36.808Z,4.70
2023-04-18T07:33:00.817Z,5.47
2023-04-18T07:36:25.270Z,4.05
2023-04-18T07:39:49.362Z,4.50
2023-04-18T07:43:16.213Z,3.95
2023-04-18T07:46:40.972Z,3.88
2023-04-18T07:50:05.450Z,4.03
2023-04-18T07:53:29.984Z,4.30
2023-04-18T07:56:56.446Z,3.80
2023-04-18T08:00:23.405Z,4.20
2023-04-18T08:03:48.952Z,4.00
2023-04-18T08:07:13.421Z,3.92
2023-04-18T08:10:39.170Z,3.45
2023-04-18T08:14:05.534Z,3.28
2023-04-18T08:17:34.013Z,3.83
2023-04-18T08:20:58.525Z,3.77
2023-04-18T08:24:22.977Z,4.05
2023-04-18T08:27:47.258Z,4.32
2023-04-18T08:31:16.439Z,3.95
2023-04-18T08:34:44.995Z,3.85
2023-04-18T08:38:10.984Z,3.28
2023-04-18T08:41:41.562Z,3.88
2023-04-18T08:45:07.015Z,4.70
2023-04-18T08:48:30.718Z,3.47
2023-04-18T08:52:02.537Z,3.40
2023-04-18T08:55:27.191Z,2.40
2023-04-18T08:58:54.245Z,2.00
2023-04-18T09:02:20.532Z,3.58
2023-04-18T09:05:47.433Z,2.90
2023-04-18T09:09:14.271Z,2.65
2023-04-18T09:12:50.979Z,4.15
2023-04-18T09:16:15.307Z,3.28
2023-04-18T09:19:47.555Z,3.13
2023-04-18T09:23:15.310Z,2.92
2023-04-18T09:26:41.554Z,3.10
2023-04-18T09:30:05.586Z,3.08
2023-04-18T09:33:33.712Z,3.05
2023-04-18T09:37:14.353Z,2.45
2023-04-18T09:40:38.680Z,3.17
2023-04-18T09:44:18.397Z,2.75
2023-04-18T09:47:42.984Z,2.75
2023-04-18T09:51:10.352Z,2.28
2023-04-18T09:54:40.313Z,2.33
2023-04-18T09:58:09.731Z,3.03
2023-04-18T10:01:36.954Z,2.75
2023-04-18T10:05:03.187Z,2.72
2023-04-18T10:08:27.509Z,3.00
2023-04-18T10:11:53.328Z,3.05
2023-04-18T10:15:18.247Z,2.40
2023-04-18T10:18:46.345Z,3.05
2023-04-18T10:22:11.027Z,2.30
2023-04-18T10:25:55.029Z,2.90
2023-04-18T10:29:22.754Z,2.35
2023-04-18T10:32:47.811Z,2.78
2023-04-18T10:36:22.028Z,3.10
2023-04-18T10:39:58.971Z,3.08
2023-04-18T10:43:22.444Z,3.00
2023-04-18T10:47:02.376Z,2.55
2023-04-18T10:50:27.310Z,3.30
2023-04-18T10:53:58.878Z,3.65
2023-04-18T10:57:24.044Z,5.78
2023-04-18T11:00:50.346Z,4.03
2023-04-18T11:04:16.814Z,2.47
2023-04-18T11:07:45.898Z,3.35
2023-04-18T11:11:12.217Z,2.58
2023-04-18T11:14:55.296Z,2.88
2023-04-18T11:18:20.042Z,2.60
2023-04-18T11:21:45.154Z,3.30
2023-04-18T11:25:10.463Z,14.82
2023-04-18T11:28:35.990Z,3.42
2023-04-18T11:32:03.527Z,2.15
2023-04-18T11:35:27.961Z,2.13
2023-04-18T11:38:52.241Z,2.38
2023-04-18T11:42:17.241Z,2.15
2023-04-18T11:45:53.326Z,2.47
2023-04-18T11:49:31.021Z,2.20
2023-04-18T11:52:57.052Z,2.90
2023-04-18T11:56:20.225Z,1.70
2023-04-18T11:59:51.053Z,2.10
2023-04-18T12:03:20.302Z,3.30
2023-04-18T12:06:51.007Z,2.42
2023-04-18T12:10:28.548Z,3.97
2023-04-18T12:13:52.023Z,3.42
2023-04-18T12:17:16.485Z,2.70
2023-04-18T12:20:46.544Z,2.28
2023-04-18T12:24:16.790Z,3.05
2023-04-18T12:28:00.488Z,2.58
2023-04-18T12:31:24.285Z,3.55
2023-04-18T12:34:48.061Z,3.28
2023-04-18T12:38:13.347Z,3.75
2023-04-18T12:41:37.949Z,4.72
2023-04-18T12:45:08.185Z,5.10
2023-04-18T12:48:34.882Z,3.45
2023-04-18T12:51:59.220Z,3.10
2023-04-18T12:55:25.347Z,2.90
2023-04-18T12:58:50.065Z,2.83
2023-04-18T13:02:15.038Z,3.50
2023-04-18T13:05:39.416Z,2.40
2023-04-18T13:09:04.367Z,2.03
2023-04-18T13:12:31.319Z,2.60
2023-04-18T13:15:56.380Z,2.85
2023-04-18T13:19:20.203Z,2.80
2023-04-18T13:22:45.429Z,3.25
2023-04-18T13:26:10.329Z,2.78
2023-04-18T13:29:37.183Z,2.53
2023-04-18T13:33:03.072Z,2.30
2023-04-18T13:36:27.398Z,2.70
2023-04-18T13:39:51.486Z,2.80
2023-04-18T13:43:16.182Z,3.33
2023-04-18T13:46:42.097Z,2.40
2023-04-18T13:50:09.519Z,2.47
2023-04-18T13:53:33.950Z,2.33
2023-04-18T13:56:59.297Z,2.15
2023-04-18T14:00:23.479Z,2.50
2023-04-18T14:03:48.509Z,2.60
2023-04-18T14:07:12.370Z,2.60
2023-04-18T14:10:35.736Z,2.55
2023-04-18T14:14:04.232Z,2.85
2023-04-18T14:17:29.125Z,2.47
2023-04-18T14:20:55.934Z,3.08
2023-04-18T14:24:19.664Z,2.85
2023-04-18T14:27:43.857Z,2.97
2023-04-18T14:31:08.302Z,2.85
2023-04-18T14:34:34.407Z,2.85
2023-04-18T14:38:02.259Z,2.40
2023-04-18T14:41:26.543Z,2.63
2023-04-18T14:44:50.100Z,2.50
2023-04-18T14:48:14.181Z,2.33
2023-04-18T14:51:38.100Z,2.45
2023-04-18T14:55:03.313Z,2.67
2023-04-18T14:58:27.406Z,2.17
2023-04-18T15:01:51.947Z,2.45
2023-04-18T15:05:15.809Z,2.40
2023-04-18T15:08:40.255Z,2.10
2023-04-18T15:12:06.292Z,2.25
2023-04-18T15:15:31.462Z,2.35
2023-04-18T15:18:56.300Z,2.13
2023-04-18T15:22:21.412Z,1.80
2023-04-18T15:25:47.349Z,2.03
2023-04-18T15:29:13.045Z,2.20
2023-04-18T15:32:37.775Z,2.10
2023-04-18T15:36:02.164Z,2.00
2023-04-18T15:39:26.246Z,1.92
2023-04-18T15:42:52.089Z,1.80
2023-04-18T15:46:17.417Z,1.83
2023-04-18T15:49:41.075Z,1.95
2023-04-18T15:53:06.118Z,1.77
2023-04-18T15:56:33.056Z,2.00
2023-04-18T15:59:59.264Z,2.05
2023-04-18T16:03:26.217Z,1.75
2023-04-18T16:06:50.305Z,2.50
2023-04-18T16:10:15.966Z,2.20
2023-04-18T16:13:40.732Z,1.98
2023-04-18T16:17:05.848Z,1.70
2023-04-18T16:20:31.362Z,2.28
2023-04-18T16:23:55.650Z,3.10
2023-04-18T16:27:20.126Z,2.20
2023-04-18T16:30:44.888Z,3.03
2023-04-18T16:34:09.553Z,2.40
2023-04-18T16:37:36.146Z,2.33
2023-04-18T16:41:02.348Z,2.50
2023-04-18T16:44:25.805Z,1.95
2023-04-18T16:47:49.319Z,2.33
2023-04-18T16:51:14.175Z,1.92
2023-04-18T16:54:40.018Z,2.33
2023-04-18T16:58:04.401Z,3.03
2023-04-18T17:01:28.520Z,2.10
2023-04-18T17:04:52.912Z,3.35
2023-04-18T17:08:16.255Z,2.90
2023-04-18T17:11:41.804Z,2.40
2023-04-18T17:15:06.366Z,3.00
2023-04-18T17:18:31.681Z,2.53
2023-04-18T17:21:55.264Z,3.30
2023-04-18T17:25:21.604Z,2.80
2023-04-18T17:28:47.428Z,3.25
2023-04-18T17:32:11.594Z,2.28
2023-04-18T17:35:35.801Z,2.58
2023-04-18T17:39:06.585Z,2.38
2023-04-18T17:42:30.033Z,2.17
2023-04-18T17:45:56.065Z,2.20
2023-04-18T17:49:19.926Z,2.50
2023-04-18T17:52:44.151Z,2.47
2023-04-18T17:56:09.022Z,1.95
2023-04-18T17:59:38.435Z,2.13
2023-04-18T18:03:04.464Z,1.67
2023-04-18T18:06:32.152Z,2.25
2023-04-18T18:09:56.429Z,2.50
2023-04-18T18:13:20.923Z,2.00
2023-04-18T18:16:45.458Z,1.77
2023-04-18T18:20:14.156Z,1.98
2023-04-18T18:23:39.156Z,1.50
2023-04-18T18:27:06.995Z,2.08
2023-04-18T18:30:31.602Z,2.28
2023-04-18T18:33:54.968Z,1.70
2023-04-18T18:37:22.424Z,2.78
2023-04-18T18:40:46.722Z,2.13
2023-04-18T18:44:12.350Z,1.90
2023-04-18T18:47:39.671Z,2.40
2023-04-18T18:51:05.355Z,1.92
2023-04-18T18:54:32.024Z,2.38
2023-04-18T18:57:56.163Z,2.20
2023-04-18T19:01:23.149Z,2.35
2023-04-18T19:04:47.899Z,2.67
2023-04-18T19:08:11.172Z,2.65
2023-04-18T19:11:38.184Z,2.25
2023-04-18T19:15:01.970Z,1.73
2023-04-18T19:18:25.169Z,1.98
2023-04-18T19:21:51.324Z,2.00
2023-04-18T19:25:15.415Z,1.90
2023-04-18T19:28:40.927Z,1.65
2023-04-18T19:32:05.119Z,1.85
2023-04-18T19:35:30.214Z,2.20
2023-04-18T19:38:55.037Z,1.98
2023-04-18T19:42:17.779Z,1.60
2023-04-18T19:45:43.377Z,1.63
2023-04-18T19:49:07.409Z,1.40
2023-04-18T19:52:31.374Z,1.27
2023-04-18T19:55:56.058Z,1.40
2023-04-18T19:59:19.464Z,1.20
2023-04-18T20:02:45.306Z,1.55
2023-04-18T20:06:09.373Z,1.30
2023-04-18T20:10:42.186Z,1.60
2023-04-18T20:14:05.230Z,1.85
2023-04-18T20:17:31.005Z,1.60
2023-04-18T20:20:57.216Z,1.20
2023-04-18T20:24:22.495Z,1.50
2023-04-18T20:27:46.885Z,1.55
2023-04-18T20:31:11.210Z,1.60
2023-04-18T20:34:35.076Z,1.55
2023-04-18T20:38:03.478Z,1.35
2023-04-18T20:41:28.233Z,1.90
2023-04-18T20:44:52.078Z,1.52
2023-04-18T20:48:16.322Z,1.08
2023-04-18T20:51:40.617Z,1.25
2023-04-18T20:55:06.509Z,1.60
2023-04-18T20:58:31.551Z,1.90
2023-04-18T21:01:59.620Z,1.50
2023-04-18T21:05:24.532Z,2.20
2023-04-18T21:08:49.772Z,1.45
2023-04-18T21:12:17.228Z,1.67
2023-04-18T21:15:43.736Z,2.00
2023-04-18T21:19:08.222Z,2.10
2023-04-18T21:22:33.476Z,1.60
2023-04-18T21:25:58.474Z,1.88
2023-04-18T21:29:24.216Z,1.83
2023-04-18T21:32:50.269Z,1.80
2023-04-18T21:36:15.137Z,1.42
2023-04-18T21:39:40.346Z,1.95
2023-04-18T21:43:05.476Z,1.38
2023-04-18T21:46:30.891Z,1.45
2023-04-18T21:49:56.529Z,1.98
2023-04-18T21:53:21.405Z,1.83
2023-04-18T21:56:46.321Z,1.83
2023-04-18T22:00:12.223Z,1.58
2023-04-18T22:03:39.977Z,1.58
2023-04-18T22:07:04.223Z,1.48
2023-04-18T22:10:29.006Z,1.50
2023-04-18T22:13:55.469Z,1.67
2023-04-18T22:17:19.586Z,1.80
2023-04-18T22:20:47.819Z,1.10
2023-04-18T22:24:13.397Z,1.88
2023-04-18T22:27:37.832Z,1.75
2023-04-18T22:31:01.266Z,1.50
2023-04-18T22:34:25.600Z,1.90
2023-04-18T22:37:51.731Z,1.80
2023-04-18T22:41:15.254Z,1.80
2023-04-18T22:44:39.491Z,1.70
2023-04-18T22:48:03.955Z,1.25
2023-04-18T22:51:29.403Z,1.50
2023-04-18T22:54:56.068Z,1.58
2023-04-18T22:58:23.214Z,1.70
2023-04-18T23:01:47.834Z,1.70
2023-04-18T23:05:12.826Z,1.73
2023-04-18T23:08:37.211Z,1.65
2023-04-18T23:12:02.942Z,1.90
2023-04-18T23:15:28.158Z,1.75
2023-04-18T23:18:53.165Z,1.20
2023-04-18T23:22:17.645Z,1.92
2023-04-18T23:25:41.550Z,1.33
2023-04-18T23:29:10.163Z,1.58
2023-04-18T23:32:34.220Z,1.67
2023-04-18T23:35:59.262Z,1.55
2023-04-18T23:39:23.221Z,1.58
2023-04-18T23:42:48.165Z,1.73
2023-04-18T23:46:14.477Z,1.88
2023-04-18T23:49:38.742Z,1.25
2023-04-18T23:53:03.352Z,1.67
2023-04-18T23:56:27.166Z,1.30
2023-04-18T23:59:51.520Z,1.83
